sensor_id;sensor_type;location;lat;lon;timestamp;P1;durP1;ratioP1;P2;durP2;ratioP2
25653;SDS011;13511;48.622;9.230;2022-12-07T00:01:43;10.68;;;8.77;;
25653;SDS011;13511;48.622;9.230;2022-12-07T00:04:11;8.85;;;8.02;;
25653;SDS011;13511;48.622;9.230;2022-12-07T00:06:39;9.63;;;8.68;;
25653;SDS011;13511;48.622;9.230;2022-12-07T00:09:05;12.15;;;10.32;;
25653;SDS011;13511;48.622;9.230;2022-12-07T00:11:32;9.95;;;8.95;;
25653;SDS011;13511;48.622;9.230;2022-12-07T00:13:59;10.30;;;9.20;;
25653;SDS011;13511;48.622;9.230;2022-12-07T00:16:27;9.82;;;8.60;;
25653;SDS011;13511;48.622;9.230;2022-12-07T00:18:53;9.48;;;8.55;;
25653;SDS011;13511;48.622;9.230;2022-12-07T00:21:20;10.43;;;8.75;;
25653;SDS011;13511;48.622;9.230;2022-12-07T00:23:47;10.27;;;9.38;;
25653;SDS011;13511;48.622;9.230;2022-12-07T00:28:46;10.65;;;9.15;;
25653;SDS011;13511;48.622;9.230;2022-12-07T00:31:13;9.82;;;8.88;;
25653;SDS011;13511;48.622;9.230;2022-12-07T00:33:39;9.70;;;8.63;;
25653;SDS011;13511;48.622;9.230;2022-12-07T00:36:06;11.63;;;9.90;;
25653;SDS011;13511;48.622;9.230;2022-12-07T00:38:33;8.55;;;7.75;;
25653;SDS011;13511;48.622;9.230;2022-12-07T00:41:04;9.50;;;8.57;;
25653;SDS011;13511;48.622;9.230;2022-12-07T00:43:30;10.35;;;9.13;;
25653;SDS011;13511;48.622;9.230;2022-12-07T00:45:56;9.43;;;8.57;;
25653;SDS011;13511;48.622;9.230;2022-12-07T00:48:22;9.48;;;8.00;;
25653;SDS011;13511;48.622;9.230;2022-12-07T00:50:48;10.95;;;8.00;;
25653;SDS011;13511;48.622;9.230;2022-12-07T00:53:15;9.80;;;7.75;;
25653;SDS011;13511;48.622;9.230;2022-12-07T00:55:41;9.13;;;8.32;;
25653;SDS011;13511;48.622;9.230;2022-12-07T00:58:07;9.25;;;8.35;;
25653;SDS011;13511;48.622;9.230;2022-12-07T01:00:35;8.90;;;8.00;;
25653;SDS011;13511;48.622;9.230;2022-12-07T01:03:01;8.60;;;7.78;;
25653;SDS011;13511;48.622;9.230;2022-12-07T01:05:27;9.02;;;8.23;;
25653;SDS011;13511;48.622;9.230;2022-12-07T01:07:53;8.25;;;7.43;;
25653;SDS011;13511;48.622;9.230;2022-12-07T01:10:19;8.43;;;7.63;;
25653;SDS011;13511;48.622;9.230;2022-12-07T01:12:45;8.20;;;7.40;;
25653;SDS011;13511;48.622;9.230;2022-12-07T01:15:11;8.15;;;7.35;;
25653;SDS011;13511;48.622;9.230;2022-12-07T01:17:37;10.30;;;7.82;;
25653;SDS011;13511;48.622;9.230;2022-12-07T01:20:03;7.93;;;7.13;;
25653;SDS011;13511;48.622;9.230;2022-12-07T01:22:29;9.65;;;8.70;;
25653;SDS011;13511;48.622;9.230;2022-12-07T01:24:55;8.15;;;7.35;;
25653;SDS011;13511;48.622;9.230;2022-12-07T01:27:21;8.88;;;8.05;;
25653;SDS011;13511;48.622;9.230;2022-12-07T01:29:47;9.00;;;8.20;;
25653;SDS011;13511;48.622;9.230;2022-12-07T01:32:13;8.55;;;7.82;;
25653;SDS011;13511;48.622;9.230;2022-12-07T01:34:39;11.07;;;8.32;;
25653;SDS011;13511;48.622;9.230;2022-12-07T01:37:05;8.70;;;7.65;;
25653;SDS011;13511;48.622;9.230;2022-12-07T01:39:31;9.07;;;8.15;;
25653;SDS011;13511;48.622;9.230;2022-12-07T01:41:57;8.57;;;7.70;;
25653;SDS011;13511;48.622;9.230;2022-12-07T01:49:37;9.50;;;7.68;;
25653;SDS011;13511;48.622;9.230;2022-12-07T01:54:33;8.55;;;7.75;;
25653;SDS011;13511;48.622;9.230;2022-12-07T01:57:00;8.07;;;7.47;;
25653;SDS011;13511;48.622;9.230;2022-12-07T01:59:26;10.70;;;7.75;;
25653;SDS011;13511;48.622;9.230;2022-12-07T02:01:53;9.30;;;8.02;;
25653;SDS011;13511;48.622;9.230;2022-12-07T02:04:19;7.75;;;7.05;;
25653;SDS011;13511;48.622;9.230;2022-12-07T02:06:46;8.48;;;7.07;;
25653;SDS011;13511;48.622;9.230;2022-12-07T02:09:13;8.75;;;8.00;;
25653;SDS011;13511;48.622;9.230;2022-12-07T02:11:39;11.32;;;8.07;;
25653;SDS011;13511;48.622;9.230;2022-12-07T02:14:05;9.88;;;8.55;;
25653;SDS011;13511;48.622;9.230;2022-12-07T02:21:46;10.73;;;9.65;;
25653;SDS011;13511;48.622;9.230;2022-12-07T02:32:00;13.43;;;11.23;;
25653;SDS011;13511;48.622;9.230;2022-12-07T02:36:56;15.55;;;12.13;;
25653;SDS011;13511;48.622;9.230;2022-12-07T02:39:33;16.95;;;11.98;;
25653;SDS011;13511;48.622;9.230;2022-12-07T02:42:05;13.27;;;11.90;;
25653;SDS011;13511;48.622;9.230;2022-12-07T02:44:33;12.80;;;11.43;;
25653;SDS011;13511;48.622;9.230;2022-12-07T02:47:03;10.50;;;9.38;;
25653;SDS011;13511;48.622;9.230;2022-12-07T02:51:56;11.18;;;9.15;;
25653;SDS011;13511;48.622;9.230;2022-12-07T02:54:23;10.10;;;9.10;;
25653;SDS011;13511;48.622;9.230;2022-12-07T03:07:17;11.48;;;9.07;;
25653;SDS011;13511;48.622;9.230;2022-12-07T03:12:22;11.35;;;9.85;;
25653;SDS011;13511;48.622;9.230;2022-12-07T03:14:55;14.73;;;9.48;;
25653;SDS011;13511;48.622;9.230;2022-12-07T03:17:27;11.55;;;10.38;;
25653;SDS011;13511;48.622;9.230;2022-12-07T03:19:55;11.77;;;10.45;;
25653;SDS011;13511;48.622;9.230;2022-12-07T03:22:23;12.52;;;10.45;;
25653;SDS011;13511;48.622;9.230;2022-12-07T03:24:51;11.98;;;10.43;;
25653;SDS011;13511;48.622;9.230;2022-12-07T03:27:20;13.73;;;10.05;;
25653;SDS011;13511;48.622;9.230;2022-12-07T03:29:54;12.48;;;10.70;;
25653;SDS011;13511;48.622;9.230;2022-12-07T03:37:24;14.73;;;10.77;;
25653;SDS011;13511;48.622;9.230;2022-12-07T03:39:57;13.27;;;10.57;;
25653;SDS011;13511;48.622;9.230;2022-12-07T03:42:25;11.98;;;10.70;;
25653;SDS011;13511;48.622;9.230;2022-12-07T03:44:51;14.65;;;11.50;;
25653;SDS011;13511;48.622;9.230;2022-12-07T03:47:25;13.30;;;11.60;;
25653;SDS011;13511;48.622;9.230;2022-12-07T03:49:57;13.07;;;11.27;;
25653;SDS011;13511;48.622;9.230;2022-12-07T03:52:32;14.38;;;11.38;;
25653;SDS011;13511;48.622;9.230;2022-12-07T03:55:03;11.48;;;10.38;;
25653;SDS011;13511;48.622;9.230;2022-12-07T03:57:31;14.55;;;12.18;;
25653;SDS011;13511;48.622;9.230;2022-12-07T03:59:57;12.05;;;10.77;;
25653;SDS011;13511;48.622;9.230;2022-12-07T04:02:25;13.57;;;12.00;;
25653;SDS011;13511;48.622;9.230;2022-12-07T04:04:52;13.93;;;12.32;;
25653;SDS011;13511;48.622;9.230;2022-12-07T04:07:17;14.73;;;11.90;;
25653;SDS011;13511;48.622;9.230;2022-12-07T04:09:43;13.75;;;12.23;;
25653;SDS011;13511;48.622;9.230;2022-12-07T04:12:10;14.30;;;12.25;;
25653;SDS011;13511;48.622;9.230;2022-12-07T04:14:36;17.38;;;12.48;;
25653;SDS011;13511;48.622;9.230;2022-12-07T04:17:02;13.70;;;11.32;;
25653;SDS011;13511;48.622;9.230;2022-12-07T04:19:29;13.07;;;11.27;;
25653;SDS011;13511;48.622;9.230;2022-12-07T04:21:56;14.95;;;11.95;;
25653;SDS011;13511;48.622;9.230;2022-12-07T04:24:22;14.65;;;12.05;;
25653;SDS011;13511;48.622;9.230;2022-12-07T04:26:48;14.82;;;11.82;;
25653;SDS011;13511;48.622;9.230;2022-12-07T04:29:15;13.15;;;11.75;;
25653;SDS011;13511;48.622;9.230;2022-12-07T04:31:41;11.77;;;10.52;;
25653;SDS011;13511;48.622;9.230;2022-12-07T04:34:07;12.45;;;11.15;;
25653;SDS011;13511;48.622;9.230;2022-12-07T04:36:34;15.45;;;12.65;;
25653;SDS011;13511;48.622;9.230;2022-12-07T04:39:00;13.43;;;11.88;;
25653;SDS011;13511;48.622;9.230;2022-12-07T04:41:26;16.42;;;12.88;;
25653;SDS011;13511;48.622;9.230;2022-12-07T04:46:21;15.25;;;13.25;;
25653;SDS011;13511;48.622;9.230;2022-12-07T04:48:48;17.00;;;12.98;;
25653;SDS011;13511;48.622;9.230;2022-12-07T04:51:15;13.40;;;11.60;;
25653;SDS011;13511;48.622;9.230;2022-12-07T04:53:44;13.77;;;11.65;;
25653;SDS011;13511;48.622;9.230;2022-12-07T04:56:10;13.05;;;10.82;;
25653;SDS011;13511;48.622;9.230;2022-12-07T04:58:35;11.90;;;10.68;;
25653;SDS011;13511;48.622;9.230;2022-12-07T05:01:01;12.48;;;10.82;;
25653;SDS011;13511;48.622;9.230;2022-12-07T05:03:28;14.15;;;11.90;;
25653;SDS011;13511;48.622;9.230;2022-12-07T05:05:54;15.77;;;13.38;;
25653;SDS011;13511;48.622;9.230;2022-12-07T05:08:19;17.23;;;13.57;;
25653;SDS011;13511;48.622;9.230;2022-12-07T05:10:45;17.92;;;13.00;;
25653;SDS011;13511;48.622;9.230;2022-12-07T05:13:14;16.50;;;12.88;;
25653;SDS011;13511;48.622;9.230;2022-12-07T05:15:40;15.02;;;12.90;;
25653;SDS011;13511;48.622;9.230;2022-12-07T05:18:08;13.80;;;12.40;;
25653;SDS011;13511;48.622;9.230;2022-12-07T05:20:34;20.58;;;14.45;;
25653;SDS011;13511;48.622;9.230;2022-12-07T05:23:00;15.43;;;13.18;;
25653;SDS011;13511;48.622;9.230;2022-12-07T05:25:26;16.85;;;13.63;;
25653;SDS011;13511;48.622;9.230;2022-12-07T05:27:52;15.13;;;13.50;;
25653;SDS011;13511;48.622;9.230;2022-12-07T05:30:20;17.33;;;14.32;;
25653;SDS011;13511;48.622;9.230;2022-12-07T05:32:46;18.25;;;14.10;;
25653;SDS011;13511;48.622;9.230;2022-12-07T05:35:12;15.57;;;12.52;;
25653;SDS011;13511;48.622;9.230;2022-12-07T05:37:38;17.10;;;13.43;;
25653;SDS011;13511;48.622;9.230;2022-12-07T05:40:04;13.60;;;11.85;;
25653;SDS011;13511;48.622;9.230;2022-12-07T05:42:30;13.55;;;12.18;;
25653;SDS011;13511;48.622;9.230;2022-12-07T05:44:56;13.85;;;12.40;;
25653;SDS011;13511;48.622;9.230;2022-12-07T05:47:22;13.00;;;11.00;;
25653;SDS011;13511;48.622;9.230;2022-12-07T05:49:48;11.55;;;10.25;;
25653;SDS011;13511;48.622;9.230;2022-12-07T05:52:14;13.73;;;12.32;;
25653;SDS011;13511;48.622;9.230;2022-12-07T05:54:40;14.13;;;11.95;;
25653;SDS011;13511;48.622;9.230;2022-12-07T05:57:06;14.85;;;13.38;;
25653;SDS011;13511;48.622;9.230;2022-12-07T05:59:32;17.52;;;14.68;;
25653;SDS011;13511;48.622;9.230;2022-12-07T06:01:59;15.23;;;13.45;;
25653;SDS011;13511;48.622;9.230;2022-12-07T06:04:27;16.27;;;13.90;;
25653;SDS011;13511;48.622;9.230;2022-12-07T06:06:54;16.33;;;14.10;;
25653;SDS011;13511;48.622;9.230;2022-12-07T06:09:20;16.73;;;14.65;;
25653;SDS011;13511;48.622;9.230;2022-12-07T06:11:47;14.30;;;12.80;;
25653;SDS011;13511;48.622;9.230;2022-12-07T06:14:31;15.88;;;13.40;;
25653;SDS011;13511;48.622;9.230;2022-12-07T06:16:57;15.38;;;13.38;;
25653;SDS011;13511;48.622;9.230;2022-12-07T06:19:23;15.77;;;13.63;;
25653;SDS011;13511;48.622;9.230;2022-12-07T06:21:49;17.58;;;13.73;;
25653;SDS011;13511;48.622;9.230;2022-12-07T06:24:16;17.42;;;13.98;;
25653;SDS011;13511;48.622;9.230;2022-12-07T06:26:42;16.77;;;13.30;;
25653;SDS011;13511;48.622;9.230;2022-12-07T06:29:08;14.38;;;12.70;;
25653;SDS011;13511;48.622;9.230;2022-12-07T06:31:35;15.75;;;13.40;;
25653;SDS011;13511;48.622;9.230;2022-12-07T06:34:02;14.73;;;11.57;;
25653;SDS011;13511;48.622;9.230;2022-12-07T06:36:29;13.93;;;12.07;;
25653;SDS011;13511;48.622;9.230;2022-12-07T06:38:55;15.13;;;13.50;;
25653;SDS011;13511;48.622;9.230;2022-12-07T06:41:21;19.33;;;14.38;;
25653;SDS011;13511;48.622;9.230;2022-12-07T06:43:47;18.38;;;13.50;;
25653;SDS011;13511;48.622;9.230;2022-12-07T06:46:14;16.20;;;13.25;;
25653;SDS011;13511;48.622;9.230;2022-12-07T06:48:40;16.63;;;13.35;;
25653;SDS011;13511;48.622;9.230;2022-12-07T06:51:07;17.52;;;13.57;;
25653;SDS011;13511;48.622;9.230;2022-12-07T06:53:33;13.88;;;11.93;;
25653;SDS011;13511;48.622;9.230;2022-12-07T06:55:59;14.13;;;12.05;;
25653;SDS011;13511;48.622;9.230;2022-12-07T06:58:25;14.48;;;12.60;;
25653;SDS011;13511;48.622;9.230;2022-12-07T07:00:51;14.98;;;11.70;;
25653;SDS011;13511;48.622;9.230;2022-12-07T07:03:17;12.75;;;11.30;;
25653;SDS011;13511;48.622;9.230;2022-12-07T07:05:43;13.82;;;11.93;;
25653;SDS011;13511;48.622;9.230;2022-12-07T07:08:09;15.85;;;12.63;;
25653;SDS011;13511;48.622;9.230;2022-12-07T07:10:36;14.63;;;11.57;;
25653;SDS011;13511;48.622;9.230;2022-12-07T07:13:02;16.88;;;12.73;;
25653;SDS011;13511;48.622;9.230;2022-12-07T07:15:29;17.27;;;13.07;;
25653;SDS011;13511;48.622;9.230;2022-12-07T07:17:55;14.82;;;12.60;;
25653;SDS011;13511;48.622;9.230;2022-12-07T07:20:21;14.18;;;12.70;;
25653;SDS011;13511;48.622;9.230;2022-12-07T07:22:47;13.63;;;11.98;;
25653;SDS011;13511;48.622;9.230;2022-12-07T07:25:14;16.13;;;13.13;;
25653;SDS011;13511;48.622;9.230;2022-12-07T07:27:40;14.65;;;11.60;;
25653;SDS011;13511;48.622;9.230;2022-12-07T07:30:06;13.73;;;11.40;;
25653;SDS011;13511;48.622;9.230;2022-12-07T07:32:32;12.05;;;10.80;;
25653;SDS011;13511;48.622;9.230;2022-12-07T07:34:58;12.57;;;10.77;;
25653;SDS011;13511;48.622;9.230;2022-12-07T07:37:24;13.32;;;12.00;;
25653;SDS011;13511;48.622;9.230;2022-12-07T07:39:50;13.65;;;12.25;;
25653;SDS011;13511;48.622;9.230;2022-12-07T07:42:16;13.07;;;11.68;;
25653;SDS011;13511;48.622;9.230;2022-12-07T07:44:42;15.18;;;11.63;;
25653;SDS011;13511;48.622;9.230;2022-12-07T07:47:08;12.07;;;10.88;;
25653;SDS011;13511;48.622;9.230;2022-12-07T07:49:34;12.15;;;10.63;;
25653;SDS011;13511;48.622;9.230;2022-12-07T07:52:00;13.40;;;11.52;;
25653;SDS011;13511;48.622;9.230;2022-12-07T07:54:26;14.88;;;12.00;;
25653;SDS011;13511;48.622;9.230;2022-12-07T07:56:52;13.50;;;11.65;;
25653;SDS011;13511;48.622;9.230;2022-12-07T07:59:18;13.65;;;11.35;;
25653;SDS011;13511;48.622;9.230;2022-12-07T08:01:44;12.15;;;10.68;;
25653;SDS011;13511;48.622;9.230;2022-12-07T08:04:10;12.52;;;10.80;;
25653;SDS011;13511;48.622;9.230;2022-12-07T08:06:36;12.77;;;10.70;;
25653;SDS011;13511;48.622;9.230;2022-12-07T08:09:02;13.25;;;11.63;;
25653;SDS011;13511;48.622;9.230;2022-12-07T08:11:30;12.98;;;11.40;;
25653;SDS011;13511;48.622;9.230;2022-12-07T08:13:56;12.60;;;11.35;;
25653;SDS011;13511;48.622;9.230;2022-12-07T08:16:22;11.98;;;10.77;;
25653;SDS011;13511;48.622;9.230;2022-12-07T08:18:48;13.48;;;12.02;;
25653;SDS011;13511;48.622;9.230;2022-12-07T08:21:15;15.32;;;11.15;;
25653;SDS011;13511;48.622;9.230;2022-12-07T08:23:41;12.80;;;11.50;;
25653;SDS011;13511;48.622;9.230;2022-12-07T08:26:14;13.07;;;10.75;;
25653;SDS011;13511;48.622;9.230;2022-12-07T08:28:40;12.50;;;11.20;;
25653;SDS011;13511;48.622;9.230;2022-12-07T08:31:14;13.02;;;11.73;;
25653;SDS011;13511;48.622;9.230;2022-12-07T08:33:40;12.43;;;11.13;;
25653;SDS011;13511;48.622;9.230;2022-12-07T08:36:07;12.75;;;10.50;;
25653;SDS011;13511;48.622;9.230;2022-12-07T08:38:34;15.98;;;11.82;;
25653;SDS011;13511;48.622;9.230;2022-12-07T08:41:00;13.95;;;11.05;;
25653;SDS011;13511;48.622;9.230;2022-12-07T08:43:26;16.80;;;11.63;;
25653;SDS011;13511;48.622;9.230;2022-12-07T08:48:21;13.95;;;11.95;;
25653;SDS011;13511;48.622;9.230;2022-12-07T08:50:49;14.00;;;12.60;;
25653;SDS011;13511;48.622;9.230;2022-12-07T08:53:16;12.73;;;11.40;;
25653;SDS011;13511;48.622;9.230;2022-12-07T08:55:42;16.10;;;12.50;;
25653;SDS011;13511;48.622;9.230;2022-12-07T08:58:09;16.70;;;12.52;;
25653;SDS011;13511;48.622;9.230;2022-12-07T09:00:35;15.50;;;12.52;;
25653;SDS011;13511;48.622;9.230;2022-12-07T09:03:01;14.43;;;12.65;;
25653;SDS011;13511;48.622;9.230;2022-12-07T09:05:27;17.30;;;13.35;;
25653;SDS011;13511;48.622;9.230;2022-12-07T09:07:54;17.55;;;13.25;;
25653;SDS011;13511;48.622;9.230;2022-12-07T09:10:21;15.15;;;13.18;;
25653;SDS011;13511;48.622;9.230;2022-12-07T09:12:48;16.20;;;13.23;;
25653;SDS011;13511;48.622;9.230;2022-12-07T09:15:14;15.63;;;13.20;;
25653;SDS011;13511;48.622;9.230;2022-12-07T09:17:40;14.45;;;12.38;;
25653;SDS011;13511;48.622;9.230;2022-12-07T09:20:06;15.60;;;13.57;;
25653;SDS011;13511;48.622;9.230;2022-12-07T09:22:32;15.70;;;14.05;;
25653;SDS011;13511;48.622;9.230;2022-12-07T09:24:59;14.75;;;13.13;;
25653;SDS011;13511;48.622;9.230;2022-12-07T09:27:25;18.15;;;12.77;;
25653;SDS011;13511;48.622;9.230;2022-12-07T09:29:51;16.60;;;13.70;;
25653;SDS011;13511;48.622;9.230;2022-12-07T09:32:17;19.35;;;12.48;;
25653;SDS011;13511;48.622;9.230;2022-12-07T09:34:43;14.27;;;12.77;;
25653;SDS011;13511;48.622;9.230;2022-12-07T09:37:09;13.93;;;12.27;;
25653;SDS011;13511;48.622;9.230;2022-12-07T09:39:39;15.25;;;13.65;;
25653;SDS011;13511;48.622;9.230;2022-12-07T09:42:05;16.45;;;12.80;;
25653;SDS011;13511;48.622;9.230;2022-12-07T09:44:32;12.60;;;11.25;;
25653;SDS011;13511;48.622;9.230;2022-12-07T09:46:58;13.13;;;11.75;;
25653;SDS011;13511;48.622;9.230;2022-12-07T09:49:25;13.82;;;12.43;;
25653;SDS011;13511;48.622;9.230;2022-12-07T09:52:27;15.32;;;11.98;;
25653;SDS011;13511;48.622;9.230;2022-12-07T09:54:47;14.40;;;12.90;;
25653;SDS011;13511;48.622;9.230;2022-12-07T09:57:14;13.52;;;11.48;;
25653;SDS011;13511;48.622;9.230;2022-12-07T09:59:40;12.25;;;11.05;;
25653;SDS011;13511;48.622;9.230;2022-12-07T10:02:23;10.70;;;9.65;;
25653;SDS011;13511;48.622;9.230;2022-12-07T10:04:50;12.48;;;10.90;;
25653;SDS011;13511;48.622;9.230;2022-12-07T10:07:16;13.15;;;10.70;;
25653;SDS011;13511;48.622;9.230;2022-12-07T10:09:42;13.93;;;11.63;;
25653;SDS011;13511;48.622;9.230;2022-12-07T10:12:09;12.95;;;10.50;;
25653;SDS011;13511;48.622;9.230;2022-12-07T10:14:37;11.65;;;10.45;;
25653;SDS011;13511;48.622;9.230;2022-12-07T10:19:48;11.80;;;10.68;;
25653;SDS011;13511;48.622;9.230;2022-12-07T10:22:15;11.23;;;10.13;;
25653;SDS011;13511;48.622;9.230;2022-12-07T10:24:42;10.85;;;9.10;;
25653;SDS011;13511;48.622;9.230;2022-12-07T10:27:22;11.43;;;10.23;;
25653;SDS011;13511;48.622;9.230;2022-12-07T10:29:52;11.25;;;10.15;;
25653;SDS011;13511;48.622;9.230;2022-12-07T10:34:44;11.65;;;9.80;;
25653;SDS011;13511;48.622;9.230;2022-12-07T10:37:15;10.68;;;9.65;;
25653;SDS011;13511;48.622;9.230;2022-12-07T10:39:51;11.38;;;9.27;;
25653;SDS011;13511;48.622;9.230;2022-12-07T10:42:19;11.02;;;8.38;;
25653;SDS011;13511;48.622;9.230;2022-12-07T10:44:45;10.63;;;8.40;;
25653;SDS011;13511;48.622;9.230;2022-12-07T10:57:30;15.60;;;10.27;;
25653;SDS011;13511;48.622;9.230;2022-12-07T11:00:10;9.25;;;8.52;;
25653;SDS011;13511;48.622;9.230;2022-12-07T11:08:05;11.48;;;10.38;;
25653;SDS011;13511;48.622;9.230;2022-12-07T11:10:48;10.57;;;9.35;;
25653;SDS011;13511;48.622;9.230;2022-12-07T11:29:12;7.85;;;7.25;;
25653;SDS011;13511;48.622;9.230;2022-12-07T11:37:12;7.85;;;7.15;;
25653;SDS011;13511;48.622;9.230;2022-12-07T11:39:41;8.95;;;8.13;;
25653;SDS011;13511;48.622;9.230;2022-12-07T11:42:11;8.77;;;7.90;;
25653;SDS011;13511;48.622;9.230;2022-12-07T11:47:09;9.13;;;8.18;;
25653;SDS011;13511;48.622;9.230;2022-12-07T11:55:00;10.65;;;9.55;;
25653;SDS011;13511;48.622;9.230;2022-12-07T11:57:28;10.88;;;9.80;;
25653;SDS011;13511;48.622;9.230;2022-12-07T11:59:59;10.40;;;9.40;;
25653;SDS011;13511;48.622;9.230;2022-12-07T12:02:28;11.80;;;10.48;;
25653;SDS011;13511;48.622;9.230;2022-12-07T12:07:33;10.65;;;9.65;;
25653;SDS011;13511;48.622;9.230;2022-12-07T12:10:06;10.65;;;9.73;;
25653;SDS011;13511;48.622;9.230;2022-12-07T12:15:33;12.45;;;9.60;;
25653;SDS011;13511;48.622;9.230;2022-12-07T12:18:05;12.52;;;10.27;;
25653;SDS011;13511;48.622;9.230;2022-12-07T12:20:50;10.93;;;9.85;;
25653;SDS011;13511;48.622;9.230;2022-12-07T12:23:18;12.35;;;11.15;;
25653;SDS011;13511;48.622;9.230;2022-12-07T12:33:46;11.70;;;10.50;;
25653;SDS011;13511;48.622;9.230;2022-12-07T12:51:42;9.05;;;8.15;;
25653;SDS011;13511;48.622;9.230;2022-12-07T12:59:23;10.93;;;9.88;;
25653;SDS011;13511;48.622;9.230;2022-12-07T13:02:07;11.30;;;10.18;;
25653;SDS011;13511;48.622;9.230;2022-12-07T13:05:35;11.40;;;10.00;;
25653;SDS011;13511;48.622;9.230;2022-12-07T13:12:38;10.00;;;8.52;;
25653;SDS011;13511;48.622;9.230;2022-12-07T13:15:19;8.70;;;7.93;;
25653;SDS011;13511;48.622;9.230;2022-12-07T13:17:55;9.90;;;8.05;;
25653;SDS011;13511;48.622;9.230;2022-12-07T13:20:44;8.65;;;7.93;;
25653;SDS011;13511;48.622;9.230;2022-12-07T13:23:11;8.70;;;7.95;;
25653;SDS011;13511;48.622;9.230;2022-12-07T13:25:41;8.05;;;7.35;;
25653;SDS011;13511;48.622;9.230;2022-12-07T13:28:20;10.48;;;8.00;;
25653;SDS011;13511;48.622;9.230;2022-12-07T13:30:50;8.20;;;7.50;;
25653;SDS011;13511;48.622;9.230;2022-12-07T13:33:18;9.43;;;7.60;;
25653;SDS011;13511;48.622;9.230;2022-12-07T13:35:44;7.18;;;6.68;;
25653;SDS011;13511;48.622;9.230;2022-12-07T13:40:59;8.70;;;7.95;;
25653;SDS011;13511;48.622;9.230;2022-12-07T13:43:25;8.75;;;7.07;;
25653;SDS011;13511;48.622;9.230;2022-12-07T13:45:55;7.20;;;6.75;;
25653;SDS011;13511;48.622;9.230;2022-12-07T13:48:42;9.77;;;7.13;;
25653;SDS011;13511;48.622;9.230;2022-12-07T13:51:16;8.18;;;7.55;;
25653;SDS011;13511;48.622;9.230;2022-12-07T13:53:46;7.72;;;7.03;;
25653;SDS011;13511;48.622;9.230;2022-12-07T13:56:12;7.90;;;7.22;;
25653;SDS011;13511;48.622;9.230;2022-12-07T13:58:40;9.13;;;7.43;;
25653;SDS011;13511;48.622;9.230;2022-12-07T14:01:07;8.05;;;7.35;;
25653;SDS011;13511;48.622;9.230;2022-12-07T14:03:34;9.15;;;8.07;;
25653;SDS011;13511;48.622;9.230;2022-12-07T14:06:05;8.95;;;8.20;;
25653;SDS011;13511;48.622;9.230;2022-12-07T14:08:31;8.55;;;7.95;;
25653;SDS011;13511;48.622;9.230;2022-12-07T14:10:57;7.60;;;6.90;;
25653;SDS011;13511;48.622;9.230;2022-12-07T14:13:34;7.22;;;6.72;;
25653;SDS011;13511;48.622;9.230;2022-12-07T14:16:04;7.47;;;6.78;;
25653;SDS011;13511;48.622;9.230;2022-12-07T14:18:38;8.52;;;7.70;;
25653;SDS011;13511;48.622;9.230;2022-12-07T14:21:06;7.88;;;7.15;;
25653;SDS011;13511;48.622;9.230;2022-12-07T14:23:32;8.18;;;7.47;;
25653;SDS011;13511;48.622;9.230;2022-12-07T14:26:07;8.27;;;7.50;;
25653;SDS011;13511;48.622;9.230;2022-12-07T14:28:36;9.00;;;8.30;;
25653;SDS011;13511;48.622;9.230;2022-12-07T14:31:03;9.30;;;8.45;;
25653;SDS011;13511;48.622;9.230;2022-12-07T14:33:29;8.73;;;8.07;;
25653;SDS011;13511;48.622;9.230;2022-12-07T14:35:55;10.25;;;8.85;;
25653;SDS011;13511;48.622;9.230;2022-12-07T14:38:23;9.10;;;8.23;;
25653;SDS011;13511;48.622;9.230;2022-12-07T14:40:49;12.05;;;8.65;;
25653;SDS011;13511;48.622;9.230;2022-12-07T14:43:16;9.73;;;8.85;;
25653;SDS011;13511;48.622;9.230;2022-12-07T14:45:42;8.52;;;7.82;;
25653;SDS011;13511;48.622;9.230;2022-12-07T14:48:12;8.73;;;7.93;;
25653;SDS011;13511;48.622;9.230;2022-12-07T14:50:41;8.20;;;7.63;;
25653;SDS011;13511;48.622;9.230;2022-12-07T14:53:12;8.18;;;7.60;;
25653;SDS011;13511;48.622;9.230;2022-12-07T14:55:39;8.30;;;7.65;;
25653;SDS011;13511;48.622;9.230;2022-12-07T14:58:05;8.25;;;7.65;;
25653;SDS011;13511;48.622;9.230;2022-12-07T15:00:31;9.05;;;8.10;;
25653;SDS011;13511;48.622;9.230;2022-12-07T15:02:59;6.93;;;6.55;;
25653;SDS011;13511;48.622;9.230;2022-12-07T15:05:25;6.90;;;6.40;;
25653;SDS011;13511;48.622;9.230;2022-12-07T15:07:51;7.22;;;6.63;;
25653;SDS011;13511;48.622;9.230;2022-12-07T15:10:21;6.70;;;6.20;;
25653;SDS011;13511;48.622;9.230;2022-12-07T15:12:47;7.03;;;6.50;;
25653;SDS011;13511;48.622;9.230;2022-12-07T15:15:13;6.40;;;6.00;;
25653;SDS011;13511;48.622;9.230;2022-12-07T15:17:40;6.60;;;6.10;;
25653;SDS011;13511;48.622;9.230;2022-12-07T15:20:07;6.55;;;6.10;;
25653;SDS011;13511;48.622;9.230;2022-12-07T15:22:36;6.28;;;5.90;;
25653;SDS011;13511;48.622;9.230;2022-12-07T15:25:02;7.13;;;6.63;;
25653;SDS011;13511;48.622;9.230;2022-12-07T15:27:29;7.53;;;6.90;;
25653;SDS011;13511;48.622;9.230;2022-12-07T15:29:56;7.88;;;7.18;;
25653;SDS011;13511;48.622;9.230;2022-12-07T15:32:21;8.35;;;7.60;;
25653;SDS011;13511;48.622;9.230;2022-12-07T15:34:48;7.78;;;7.25;;
25653;SDS011;13511;48.622;9.230;2022-12-07T15:37:15;7.88;;;7.07;;
25653;SDS011;13511;48.622;9.230;2022-12-07T15:39:41;8.32;;;7.57;;
25653;SDS011;13511;48.622;9.230;2022-12-07T15:42:07;7.70;;;7.10;;
25653;SDS011;13511;48.622;9.230;2022-12-07T15:44:33;7.05;;;6.57;;
25653;SDS011;13511;48.622;9.230;2022-12-07T15:47:18;6.50;;;5.97;;
25653;SDS011;13511;48.622;9.230;2022-12-07T15:49:44;7.05;;;6.55;;
25653;SDS011;13511;48.622;9.230;2022-12-07T15:52:10;6.55;;;6.00;;
25653;SDS011;13511;48.622;9.230;2022-12-07T15:54:36;7.25;;;6.72;;
25653;SDS011;13511;48.622;9.230;2022-12-07T15:57:02;6.90;;;6.50;;
25653;SDS011;13511;48.622;9.230;2022-12-07T15:59:28;7.10;;;6.53;;
25653;SDS011;13511;48.622;9.230;2022-12-07T16:01:54;6.65;;;6.20;;
25653;SDS011;13511;48.622;9.230;2022-12-07T16:04:21;7.20;;;6.35;;
25653;SDS011;13511;48.622;9.230;2022-12-07T16:06:47;6.75;;;6.25;;
25653;SDS011;13511;48.622;9.230;2022-12-07T16:09:13;10.60;;;6.22;;
25653;SDS011;13511;48.622;9.230;2022-12-07T16:11:39;5.90;;;5.50;;
25653;SDS011;13511;48.622;9.230;2022-12-07T16:14:05;6.95;;;5.95;;
25653;SDS011;13511;48.622;9.230;2022-12-07T16:16:31;6.95;;;6.45;;
25653;SDS011;13511;48.622;9.230;2022-12-07T16:18:57;6.10;;;5.72;;
25653;SDS011;13511;48.622;9.230;2022-12-07T16:21:23;6.97;;;6.35;;
25653;SDS011;13511;48.622;9.230;2022-12-07T16:23:49;6.95;;;6.43;;
25653;SDS011;13511;48.622;9.230;2022-12-07T16:26:19;11.35;;;10.25;;
25653;SDS011;13511;48.622;9.230;2022-12-07T16:28:47;14.30;;;12.63;;
25653;SDS011;13511;48.622;9.230;2022-12-07T16:31:14;8.93;;;6.40;;
25653;SDS011;13511;48.622;9.230;2022-12-07T16:33:41;6.25;;;5.85;;
25653;SDS011;13511;48.622;9.230;2022-12-07T16:36:09;6.45;;;6.05;;
25653;SDS011;13511;48.622;9.230;2022-12-07T16:38:35;6.03;;;5.72;;
25653;SDS011;13511;48.622;9.230;2022-12-07T16:41:02;6.50;;;5.90;;
25653;SDS011;13511;48.622;9.230;2022-12-07T16:43:28;6.97;;;6.47;;
25653;SDS011;13511;48.622;9.230;2022-12-07T16:45:54;8.32;;;7.50;;
25653;SDS011;13511;48.622;9.230;2022-12-07T16:48:20;8.30;;;7.60;;
25653;SDS011;13511;48.622;9.230;2022-12-07T16:50:46;6.97;;;6.38;;
25653;SDS011;13511;48.622;9.230;2022-12-07T16:53:13;6.95;;;6.45;;
25653;SDS011;13511;48.622;9.230;2022-12-07T16:55:41;7.40;;;6.70;;
25653;SDS011;13511;48.622;9.230;2022-12-07T16:58:08;7.32;;;6.65;;
25653;SDS011;13511;48.622;9.230;2022-12-07T17:00:34;8.43;;;7.35;;